createdAt,value
2022-09-02T00:01:28.020Z,17.80
2022-09-02T00:04:01.000Z,17.70
2022-09-02T00:06:29.564Z,17.70
2022-09-02T00:08:56.885Z,17.70
2022-09-02T00:11:27.456Z,17.60
2022-09-02T00:13:55.787Z,17.60
2022-09-02T00:16:23.719Z,17.50
2022-09-02T00:18:51.929Z,17.50
2022-09-02T00:21:19.665Z,17.50
2022-09-02T00:23:46.361Z,17.40
2022-09-02T00:26:13.860Z,17.40
2022-09-02T00:28:44.276Z,17.40
2022-09-02T00:31:16.946Z,17.30
2022-09-02T00:33:43.712Z,17.30
2022-09-02T00:36:11.702Z,17.30
2022-09-02T00:38:39.681Z,17.20
2022-09-02T00:41:10.331Z,17.10
2022-09-02T00:43:42.671Z,17.10
2022-09-02T00:46:09.957Z,17.10
2022-09-02T00:48:44.365Z,17.20
2022-09-02T00:51:12.720Z,17.10
2022-09-02T00:53:42.256Z,17.20
2022-09-02T00:56:13.787Z,17.10
2022-09-02T00:58:42.964Z,17.10
2022-09-02T01:01:11.490Z,17.00
2022-09-02T01:03:40.013Z,17.00
2022-09-02T01:06:08.073Z,16.90
2022-09-02T01:08:36.564Z,16.80
2022-09-02T01:11:06.990Z,16.70
2022-09-02T01:13:38.799Z,16.70
2022-09-02T01:16:25.676Z,16.70
2022-09-02T01:18:54.639Z,16.70
2022-09-02T01:21:23.086Z,16.60
2022-09-02T01:23:50.956Z,16.60
2022-09-02T01:26:18.044Z,16.50
2022-09-02T01:28:44.825Z,16.50
2022-09-02T01:31:11.823Z,16.40
2022-09-02T01:33:38.778Z,16.40
2022-09-02T01:36:05.603Z,16.40
2022-09-02T01:38:32.935Z,16.20
2022-09-02T01:40:59.672Z,16.10
2022-09-02T01:43:28.105Z,16.10
2022-09-02T01:45:56.903Z,16.00
2022-09-02T01:48:24.095Z,16.10
2022-09-02T01:50:55.268Z,16.00
2022-09-02T01:53:22.023Z,16.00
2022-09-02T01:55:48.980Z,16.00
2022-09-02T01:58:15.676Z,15.90
2022-09-02T02:00:42.472Z,15.90
2022-09-02T02:03:09.184Z,15.90
2022-09-02T02:05:36.568Z,15.90
2022-09-02T02:08:03.808Z,15.80
2022-09-02T02:10:30.490Z,15.80
2022-09-02T02:12:57.142Z,15.80
2022-09-02T02:17:49.933Z,15.80
2022-09-02T02:20:18.604Z,15.80
2022-09-02T02:22:45.944Z,15.70
2022-09-02T02:25:14.947Z,15.70
2022-09-02T02:27:43.604Z,15.60
2022-09-02T02:30:12.011Z,15.50
2022-09-02T02:32:39.167Z,15.50
2022-09-02T02:35:06.474Z,15.40
2022-09-02T02:37:33.274Z,15.40
2022-09-02T02:39:59.885Z,15.40
2022-09-02T02:42:26.548Z,15.40
2022-09-02T02:44:53.193Z,15.30
2022-09-02T02:47:19.837Z,15.20
2022-09-02T02:49:46.470Z,15.10
2022-09-02T02:52:14.169Z,15.10
2022-09-02T02:54:42.432Z,15.00
2022-09-02T02:57:09.935Z,15.00
2022-09-02T02:59:37.000Z,15.00
2022-09-02T03:02:06.364Z,15.10
2022-09-02T03:04:34.072Z,15.10
2022-09-02T03:07:00.879Z,15.00
2022-09-02T03:09:27.696Z,14.90
2022-09-02T03:11:54.363Z,14.60
2022-09-02T03:14:21.952Z,14.50
2022-09-02T03:16:48.562Z,14.50
2022-09-02T03:19:15.185Z,14.50
2022-09-02T03:21:42.566Z,14.50
2022-09-02T03:24:11.318Z,14.50
2022-09-02T03:26:38.367Z,14.50
2022-09-02T03:29:05.073Z,14.50
2022-09-02T03:31:32.171Z,14.50
2022-09-02T03:33:58.892Z,14.50
2022-09-02T03:36:28.617Z,14.50
2022-09-02T03:38:56.000Z,14.50
2022-09-02T03:41:22.733Z,14.40
2022-09-02T03:43:50.357Z,14.40
2022-09-02T03:46:17.761Z,14.40
2022-09-02T03:48:44.790Z,14.30
2022-09-02T03:51:12.127Z,14.20
2022-09-02T03:53:39.241Z,14.10
2022-09-02T03:56:07.946Z,14.10
2022-09-02T03:58:36.264Z,14.10
2022-09-02T04:01:03.081Z,14.10
2022-09-02T04:03:29.882Z,14.20
2022-09-02T04:05:56.528Z,14.20
2022-09-02T04:08:24.282Z,14.20
2022-09-02T04:10:52.430Z,14.20
2022-09-02T04:13:19.670Z,14.30
2022-09-02T04:15:49.138Z,14.20
2022-09-02T04:18:17.247Z,14.20
2022-09-02T04:20:44.355Z,14.20
2022-09-02T04:23:11.271Z,14.20
2022-09-02T04:25:44.475Z,14.20
2022-09-02T04:28:12.911Z,14.20
2022-09-02T04:30:40.913Z,14.20
2022-09-02T04:33:07.517Z,14.20
2022-09-02T04:35:35.837Z,14.20
2022-09-02T04:38:02.937Z,14.20
2022-09-02T04:40:29.642Z,14.10
2022-09-02T04:42:56.267Z,14.10
2022-09-02T04:45:26.584Z,14.10
2022-09-02T04:47:55.767Z,14.10
2022-09-02T04:50:22.357Z,14.10
2022-09-02T04:52:48.973Z,14.10
2022-09-02T04:55:15.640Z,14.10
2022-09-02T04:57:42.459Z,14.00
2022-09-02T05:00:09.843Z,14.00
2022-09-02T05:02:36.486Z,14.00
2022-09-02T05:05:03.619Z,14.00
2022-09-02T05:07:31.098Z,14.00
2022-09-02T05:09:58.945Z,14.00
2022-09-02T05:12:27.966Z,14.00
2022-09-02T05:14:56.693Z,14.00
2022-09-02T05:17:23.640Z,14.00
2022-09-02T05:19:50.279Z,14.00
2022-09-02T05:22:17.168Z,14.00
2022-09-02T05:24:44.029Z,13.90
2022-09-02T05:27:11.017Z,13.90
2022-09-02T05:29:37.815Z,13.90
2022-09-02T05:32:07.953Z,14.00
2022-09-02T05:34:36.111Z,14.00
2022-09-02T05:37:04.001Z,14.00
2022-09-02T05:39:31.079Z,14.10
2022-09-02T05:41:57.900Z,14.10
2022-09-02T05:44:24.957Z,14.10
2022-09-02T05:46:51.672Z,14.10
2022-09-02T05:49:18.496Z,14.20
2022-09-02T05:52:04.453Z,14.20
2022-09-02T05:54:34.416Z,14.20
2022-09-02T05:57:08.757Z,14.20
2022-09-02T05:59:36.857Z,14.30
2022-09-02T06:02:03.766Z,14.30
2022-09-02T06:04:32.030Z,14.40
2022-09-02T06:06:58.651Z,14.40
2022-09-02T06:09:25.344Z,14.50
2022-09-02T06:11:52.316Z,14.60
2022-09-02T06:14:22.291Z,14.60
2022-09-02T06:16:50.647Z,14.60
2022-09-02T06:19:20.482Z,14.60
2022-09-02T06:21:50.204Z,14.70
2022-09-02T06:24:17.312Z,14.80
2022-09-02T06:26:43.976Z,14.80
2022-09-02T06:29:11.405Z,14.90
2022-09-02T06:31:41.527Z,15.00
2022-09-02T06:34:12.442Z,15.00
2022-09-02T06:36:39.993Z,15.00
2022-09-02T06:39:07.654Z,15.10
2022-09-02T06:41:34.784Z,15.20
2022-09-02T06:44:04.560Z,15.20
2022-09-02T06:46:44.320Z,15.20
2022-09-02T06:49:11.557Z,15.30
2022-09-02T06:51:41.373Z,15.40
2022-09-02T06:54:11.000Z,15.50
2022-09-02T06:56:45.919Z,15.60
2022-09-02T06:59:16.375Z,15.60
2022-09-02T07:01:44.032Z,15.70
2022-09-02T07:04:29.631Z,15.70
2022-09-02T07:06:56.807Z,15.80
2022-09-02T07:09:32.249Z,15.90
2022-09-02T07:12:04.648Z,16.00
2022-09-02T07:14:32.190Z,16.10
2022-09-02T07:17:00.052Z,16.10
2022-09-02T07:19:26.967Z,16.20
2022-09-02T07:21:53.999Z,16.30
2022-09-02T07:24:20.948Z,16.40
2022-09-02T07:26:48.269Z,16.50
2022-09-02T07:29:15.664Z,16.60
2022-09-02T07:31:45.176Z,16.70
2022-09-02T07:34:13.088Z,16.80
2022-09-02T07:36:40.237Z,16.80
2022-09-02T07:39:10.718Z,16.90
2022-09-02T07:41:39.795Z,17.10
2022-09-02T07:44:08.204Z,17.20
2022-09-02T07:46:35.522Z,17.40
2022-09-02T07:49:06.461Z,17.40
2022-09-02T07:51:39.735Z,17.60
2022-09-02T07:54:07.565Z,17.60
2022-09-02T07:56:34.267Z,17.80
2022-09-02T07:59:01.128Z,17.80
2022-09-02T08:01:27.878Z,17.80
2022-09-02T08:03:55.311Z,18.00
2022-09-02T08:06:33.717Z,18.10
2022-09-02T08:09:06.838Z,18.10
2022-09-02T08:11:38.900Z,18.20
2022-09-02T08:14:09.117Z,18.40
2022-09-02T08:16:37.412Z,18.50
2022-09-02T08:19:04.098Z,18.60
2022-09-02T08:21:30.873Z,18.70
2022-09-02T08:23:57.996Z,18.70
2022-09-02T08:26:26.516Z,18.80
2022-09-02T08:28:53.183Z,19.00
2022-09-02T08:31:20.286Z,19.00
2022-09-02T08:33:46.948Z,19.00
2022-09-02T08:36:15.057Z,19.10
2022-09-02T08:38:42.612Z,19.30
2022-09-02T08:41:13.560Z,19.40
2022-09-02T08:43:43.400Z,19.40
2022-09-02T08:46:16.406Z,19.50
2022-09-02T08:48:53.128Z,19.60
2022-09-02T08:51:27.235Z,19.60
2022-09-02T08:54:03.442Z,19.70
2022-09-02T08:56:31.318Z,19.80
2022-09-02T08:59:02.186Z,19.80
2022-09-02T09:01:50.654Z,19.90
2022-09-02T09:04:20.908Z,20.00
2022-09-02T09:07:09.767Z,20.10
2022-09-02T09:09:55.452Z,20.20
2022-09-02T09:12:41.552Z,20.30
2022-09-02T09:15:21.848Z,20.40
2022-09-02T09:17:59.259Z,20.40
2022-09-02T09:20:39.893Z,20.50
2022-09-02T09:23:28.757Z,20.70
2022-09-02T09:26:12.653Z,20.70
2022-09-02T09:28:42.157Z,20.80
2022-09-02T09:31:14.918Z,21.00
2022-09-02T09:34:03.103Z,20.90
2022-09-02T09:36:51.375Z,21.00
2022-09-02T09:39:17.937Z,21.00
2022-09-02T09:41:46.026Z,21.10
2022-09-02T09:44:37.333Z,21.10
2022-09-02T09:47:08.093Z,21.10
2022-09-02T09:49:34.880Z,21.20
2022-09-02T09:52:01.491Z,21.20
2022-09-02T09:54:28.540Z,21.40
2022-09-02T09:56:55.968Z,21.50
2022-09-02T09:59:49.887Z,21.60
2022-09-02T10:02:22.686Z,21.80
2022-09-02T10:04:50.308Z,21.80
2022-09-02T10:07:36.364Z,22.00
2022-09-02T10:10:29.886Z,22.00
2022-09-02T10:13:16.487Z,22.00
2022-09-02T10:16:04.006Z,22.10
2022-09-02T10:18:50.879Z,22.10
2022-09-02T10:21:36.291Z,22.20
2022-09-02T10:24:23.843Z,22.40
2022-09-02T10:26:54.660Z,22.40
2022-09-02T10:29:33.452Z,22.40
2022-09-02T10:32:12.304Z,22.40
2022-09-02T10:35:06.250Z,22.40
2022-09-02T10:37:48.012Z,22.30
2022-09-02T10:40:25.468Z,22.40
2022-09-02T10:43:07.500Z,22.60
2022-09-02T10:45:48.009Z,22.70
2022-09-02T10:48:32.665Z,22.90
2022-09-02T10:51:21.764Z,23.00
2022-09-02T10:54:10.844Z,23.10
2022-09-02T10:56:56.421Z,23.10
2022-09-02T10:59:32.846Z,23.10
2022-09-02T11:02:21.548Z,23.00
2022-09-02T11:04:59.117Z,23.30
2022-09-02T11:07:41.008Z,23.40
2022-09-02T11:10:20.046Z,23.50
2022-09-02T11:13:04.846Z,23.40
2022-09-02T11:16:16.671Z,23.30
2022-09-02T11:19:17.592Z,23.30
2022-09-02T11:22:21.334Z,23.20
2022-09-02T11:25:15.937Z,23.00
2022-09-02T11:28:06.445Z,23.10
2022-09-02T11:30:46.041Z,23.10
2022-09-02T11:33:21.364Z,23.20
2022-09-02T11:35:48.032Z,23.20
2022-09-02T11:38:31.416Z,23.40
2022-09-02T11:41:35.640Z,23.60
2022-09-02T11:44:52.164Z,23.80
2022-09-02T11:48:03.819Z,23.90
2022-09-02T11:50:38.772Z,24.20
2022-09-02T11:53:30.910Z,24.30
2022-09-02T11:56:29.030Z,24.40
2022-09-02T11:58:55.742Z,24.50
2022-09-02T12:01:51.552Z,24.80
2022-09-02T12:04:58.829Z,24.80
2022-09-02T12:07:13.340Z,25.00
2022-09-02T12:12:36.867Z,24.90
2022-09-02T12:15:04.854Z,24.80
2022-09-02T12:17:39.811Z,24.70
2022-09-02T12:20:10.409Z,24.70
2022-09-02T12:22:39.602Z,24.70
2022-09-02T12:25:26.778Z,24.60
2022-09-02T12:28:24.096Z,24.60
2022-09-02T12:31:01.309Z,24.70
2022-09-02T12:33:39.539Z,24.70
2022-09-02T12:36:09.879Z,24.60
2022-09-02T12:38:42.843Z,24.70
2022-09-02T12:41:20.381Z,24.90
2022-09-02T12:44:09.035Z,25.30
2022-09-02T12:46:51.680Z,25.40
2022-09-02T12:49:33.408Z,25.50
2022-09-02T12:52:11.481Z,25.60
2022-09-02T12:54:48.835Z,25.80
2022-09-02T12:57:17.532Z,26.10
2022-09-02T12:59:46.235Z,26.40
2022-09-02T13:02:54.867Z,26.40
2022-09-02T13:05:21.962Z,26.50
2022-09-02T13:08:07.118Z,26.60
2022-09-02T13:10:54.922Z,26.40
2022-09-02T13:13:48.871Z,26.20
2022-09-02T13:16:43.093Z,26.00
2022-09-02T13:19:47.367Z,25.90
2022-09-02T13:22:48.838Z,26.00
2022-09-02T13:25:18.255Z,26.20
2022-09-02T13:28:05.714Z,26.40
2022-09-02T13:30:41.417Z,26.20
2022-09-02T13:33:11.997Z,26.20
2022-09-02T13:35:40.763Z,26.10
2022-09-02T13:38:12.914Z,26.40
2022-09-02T13:40:46.124Z,26.60
2022-09-02T14:03:50.346Z,26.00
2022-09-02T14:29:19.198Z,27.10
2022-09-02T14:54:50.853Z,26.90
2022-09-02T14:57:23.066Z,26.90
2022-09-02T14:59:50.716Z,27.00
2022-09-02T15:02:27.780Z,27.20
2022-09-02T15:05:00.229Z,27.50
2022-09-02T15:07:27.644Z,27.80
2022-09-02T15:09:54.296Z,27.90
2022-09-02T15:12:36.763Z,28.00
2022-09-02T15:15:03.615Z,28.00
2022-09-02T15:17:30.892Z,28.00
2022-09-02T15:19:57.608Z,28.00
2022-09-02T15:22:25.123Z,28.00
2022-09-02T15:24:51.840Z,27.90
2022-09-02T15:27:21.525Z,27.70
2022-09-02T15:29:50.484Z,27.40
2022-09-02T15:32:17.368Z,27.30
2022-09-02T15:34:44.064Z,27.40
2022-09-02T15:37:13.020Z,27.50
2022-09-02T15:39:40.445Z,27.60
2022-09-02T15:42:07.150Z,27.70
2022-09-02T15:44:33.743Z,27.80
2022-09-02T15:47:01.864Z,27.70
2022-09-02T15:49:28.835Z,27.70
2022-09-02T15:51:55.574Z,27.90
2022-09-02T15:54:23.775Z,27.90
2022-09-02T15:56:55.145Z,27.60
2022-09-02T15:59:22.182Z,27.40
2022-09-02T16:01:51.573Z,27.20
2022-09-02T16:04:18.492Z,27.00
2022-09-02T16:06:49.044Z,26.80
2022-09-02T16:09:17.367Z,26.80
2022-09-02T16:11:49.749Z,26.80
2022-09-02T16:14:20.535Z,27.10
2022-09-02T16:16:49.221Z,27.30
2022-09-02T16:19:16.212Z,27.70
2022-09-02T16:21:42.920Z,27.90
2022-09-02T16:24:10.053Z,27.60
2022-09-02T16:26:41.408Z,27.50
2022-09-02T16:29:19.550Z,27.50
2022-09-02T16:32:02.321Z,27.50
2022-09-02T16:34:34.744Z,27.40
2022-09-02T16:37:01.373Z,27.30
2022-09-02T16:39:28.013Z,26.90
2022-09-02T16:41:54.865Z,27.10
2022-09-02T16:44:24.631Z,27.50
2022-09-02T16:46:52.245Z,27.70
2022-09-02T16:49:21.100Z,27.70
2022-09-02T16:51:49.351Z,27.80
2022-09-02T16:54:21.297Z,28.10
2022-09-02T16:56:57.616Z,28.20
2022-09-02T16:59:24.315Z,28.00
2022-09-02T17:01:50.969Z,28.20
2022-09-02T17:04:17.624Z,28.50
2022-09-02T17:06:44.531Z,28.60
2022-09-02T17:09:11.191Z,28.70
2022-09-02T17:11:41.076Z,28.70
2022-09-02T17:14:15.250Z,28.60
2022-09-02T17:16:46.282Z,28.80
2022-09-02T17:19:21.016Z,28.80
2022-09-02T17:21:52.849Z,28.60
2022-09-02T17:24:22.536Z,28.60
2022-09-02T17:26:50.659Z,28.60
2022-09-02T17:32:07.066Z,28.70
2022-09-02T17:34:33.823Z,28.60
2022-09-02T17:37:00.640Z,28.50
2022-09-02T17:39:27.379Z,28.40
2022-09-02T17:41:57.604Z,28.30
2022-09-02T17:44:25.795Z,28.10
2022-09-02T17:46:53.247Z,28.00
2022-09-02T17:49:20.835Z,27.90
2022-09-02T17:51:47.750Z,27.90
2022-09-02T17:54:14.916Z,27.80
2022-09-02T17:57:07.351Z,27.70
2022-09-02T18:00:01.237Z,27.70
2022-09-02T18:02:55.885Z,27.60
2022-09-02T18:05:29.035Z,27.50
2022-09-02T18:08:03.451Z,27.20
2022-09-02T18:10:36.815Z,27.20
2022-09-02T18:13:43.872Z,27.10
2022-09-02T18:16:27.450Z,27.10
2022-09-02T18:19:13.865Z,26.90
2022-09-02T18:22:06.990Z,26.80
2022-09-02T18:25:16.316Z,26.70
2022-09-02T18:28:04.155Z,26.60
2022-09-02T18:30:35.272Z,26.60
2022-09-02T18:33:27.496Z,26.50
2022-09-02T18:36:17.203Z,26.40
2022-09-02T18:39:14.191Z,26.40
2022-09-02T18:41:54.984Z,26.30
2022-09-02T18:44:54.733Z,26.20
2022-09-02T18:47:24.853Z,26.20
2022-09-02T18:49:55.221Z,26.10
2022-09-02T18:52:27.960Z,25.90
2022-09-02T18:55:16.128Z,25.80
2022-09-02T18:57:54.976Z,25.60
2022-09-02T19:00:22.724Z,25.50
2022-09-02T19:03:01.376Z,25.30
2022-09-02T19:05:31.147Z,25.40
2022-09-02T19:08:26.507Z,25.20
2022-09-02T19:11:01.446Z,25.10
2022-09-02T19:13:30.068Z,24.90
2022-09-02T19:16:02.604Z,24.90
2022-09-02T19:18:31.472Z,24.80
2022-09-02T19:20:58.692Z,24.70
2022-09-02T19:23:27.140Z,24.40
2022-09-02T19:25:53.996Z,24.30
2022-09-02T19:28:22.032Z,24.20
2022-09-02T19:30:51.790Z,24.10
2022-09-02T19:33:18.459Z,23.90
2022-09-02T19:35:49.287Z,23.70
2022-09-02T19:38:17.552Z,23.50
2022-09-02T19:40:47.731Z,23.50
2022-09-02T19:43:15.866Z,23.50
2022-09-02T19:45:43.172Z,23.30
2022-09-02T19:48:11.600Z,23.20
2022-09-02T19:50:42.022Z,23.20
2022-09-02T19:53:10.812Z,23.10
2022-09-02T19:55:37.800Z,22.90
2022-09-02T19:58:04.636Z,22.70
2022-09-02T20:00:32.994Z,22.70
2022-09-02T20:02:59.776Z,22.60
2022-09-02T20:05:26.391Z,22.60
2022-09-02T20:07:54.777Z,22.50
2022-09-02T20:10:29.781Z,22.40
2022-09-02T20:12:58.924Z,22.40
2022-09-02T20:15:25.572Z,22.40
2022-09-02T20:17:52.427Z,22.30
2022-09-02T20:20:22.581Z,22.20
2022-09-02T20:22:55.277Z,22.20
2022-09-02T20:25:31.510Z,22.00
2022-09-02T20:28:19.654Z,22.00
2022-09-02T20:30:50.250Z,21.80
2022-09-02T20:33:20.018Z,21.80
2022-09-02T20:36:05.924Z,21.70
2022-09-02T20:38:54.316Z,21.60
2022-09-02T20:41:35.336Z,21.50
2022-09-02T20:44:29.927Z,21.40
2022-09-02T20:47:08.803Z,21.30
2022-09-02T20:49:56.563Z,21.40
2022-09-02T20:52:35.421Z,21.30
2022-09-02T20:55:04.853Z,21.30
2022-09-02T20:57:49.523Z,21.00
2022-09-02T21:00:20.443Z,20.90
2022-09-02T21:03:03.186Z,20.90
2022-09-02T21:05:40.676Z,21.00
2022-09-02T21:08:22.115Z,21.00
2022-09-02T21:10:54.295Z,20.90
2022-09-02T21:13:44.104Z,20.80
2022-09-02T21:16:38.867Z,20.80
2022-09-02T21:19:12.564Z,20.80
2022-09-02T21:22:00.435Z,20.80
2022-09-02T21:24:37.008Z,20.70
2022-09-02T21:27:28.084Z,20.60
2022-09-02T21:30:04.536Z,20.50
2022-09-02T21:32:39.578Z,20.50
2022-09-02T21:35:33.000Z,20.60
2022-09-02T21:38:04.050Z,20.50
2022-09-02T21:40:51.015Z,20.30
2022-09-02T21:43:26.664Z,20.30
2022-09-02T21:46:15.197Z,20.20
2022-09-02T21:49:32.089Z,20.20
2022-09-02T21:52:18.585Z,20.10
2022-09-02T21:55:10.083Z,20.00
2022-09-02T21:57:56.956Z,20.00
2022-09-02T22:00:24.051Z,20.00
2022-09-02T22:02:58.288Z,20.00
2022-09-02T22:05:41.217Z,20.00
2022-09-02T22:08:22.011Z,20.00
2022-09-02T22:11:10.465Z,20.00
2022-09-02T22:13:41.916Z,19.90
2022-09-02T22:16:32.674Z,19.80
2022-09-02T22:19:06.184Z,19.70
2022-09-02T22:21:45.408Z,19.70
2022-09-02T22:24:12.484Z,19.70
2022-09-02T22:26:52.261Z,19.70
2022-09-02T22:29:47.458Z,19.50
2022-09-02T22:32:18.708Z,19.50
2022-09-02T22:35:22.838Z,19.50
2022-09-02T22:37:58.823Z,19.40
2022-09-02T22:40:28.716Z,19.40
2022-09-02T22:43:01.608Z,19.40
2022-09-02T22:45:55.752Z,19.20
2022-09-02T22:48:48.749Z,19.30
2022-09-02T22:51:47.522Z,19.30
2022-09-02T22:54:14.271Z,19.30
2022-09-02T22:57:10.079Z,19.10
2022-09-02T22:59:58.053Z,19.10
2022-09-02T23:02:37.414Z,19.00
2022-09-02T23:05:43.088Z,19.10
2022-09-02T23:08:11.077Z,19.10
2022-09-02T23:11:07.099Z,19.10
2022-09-02T23:14:09.175Z,19.00
2022-09-02T23:17:03.441Z,18.90
2022-09-02T23:19:56.369Z,19.00
2022-09-02T23:23:09.284Z,18.90
2022-09-02T23:25:51.421Z,18.80
2022-09-02T23:28:28.724Z,18.80
2022-09-02T23:31:08.488Z,18.80
2022-09-02T23:33:53.036Z,18.70
2022-09-02T23:37:01.900Z,18.70
2022-09-02T23:40:00.815Z,18.60
2022-09-02T23:42:27.766Z,18.50
2022-09-02T23:45:08.961Z,18.50
2022-09-02T23:47:56.746Z,18.50
2022-09-02T23:51:02.691Z,18.40
2022-09-02T23:53:56.853Z,18.50
2022-09-02T23:56:36.420Z,18.40
2022-09-02T23:59:22.052Z,18.40
